Time;durP1;ratioP1;P1;durP2;ratioP2;P2;SDS_P1;SDS_P2;PMS_P1;PMS_P2;Temp;Humidity;BMP_temperature;BMP_pressure;BME280_temperature;BME280_humidity;BME280_pressure;Samples;Min_cycle;Max_cycle;Signal;HPM_P1;HPM_P2
2022/02/16 00:00:59;;;;;;;1.08;0.80;;;7.90;46.80;;;;;;4939004;29;20239;-74
2022/02/16 00:03:26;;;;;;;2.90;1.10;;;7.90;46.60;;;;;;4937674;29;20322;-75
2022/02/16 00:05:54;;;;;;;2.88;1.00;;;7.90;46.80;;;;;;4937743;29;20238;-74
2022/02/16 00:08:21;;;;;;;2.05;1.00;;;7.90;47.00;;;;;;4939135;29;20735;-76
2022/02/16 00:10:48;;;;;;;1.17;0.77;;;7.90;47.70;;;;;;4942369;29;20215;-74
2022/02/16 00:13:15;;;;;;;2.78;0.98;;;7.90;47.50;;;;;;4945740;29;20253;-74
2022/02/16 00:15:42;;;;;;;2.63;1.10;;;7.90;47.70;;;;;;4953507;29;20229;-74
2022/02/16 00:18:10;;;;;;;3.40;1.38;;;7.80;47.90;;;;;;4957275;28;20218;-75
2022/02/16 00:20:37;;;;;;;2.38;1.13;;;7.90;47.90;;;;;;4952168;29;20232;-75
2022/02/16 00:23:04;;;;;;;2.05;1.02;;;7.90;47.80;;;;;;4941317;29;20219;-77
2022/02/16 00:25:31;;;;;;;2.05;1.05;;;7.90;48.10;;;;;;4937968;29;20208;-74
2022/02/16 00:27:58;;;;;;;2.28;1.17;;;7.90;48.40;;;;;;4937269;29;20298;-76
2022/02/16 00:30:25;;;;;;;1.85;1.17;;;7.90;48.40;;;;;;4937157;29;20213;-75
2022/02/16 00:32:52;;;;;;;3.42;1.15;;;7.90;48.40;;;;;;4936375;29;20299;-74
2022/02/16 00:35:21;;;;;;;1.60;1.05;;;7.90;47.90;;;;;;4936877;29;20673;-76
2022/02/16 00:37:48;;;;;;;3.60;1.10;;;7.90;47.90;;;;;;4937195;29;20219;-74
2022/02/16 00:40:14;;;;;;;4.32;1.10;;;7.90;48.00;;;;;;4937514;29;20212;-74
2022/02/16 00:42:41;;;;;;;2.33;1.10;;;7.90;47.70;;;;;;4936404;29;20332;-75
2022/02/16 00:45:10;;;;;;;1.77;1.10;;;7.90;47.70;;;;;;4935759;29;20346;-74
2022/02/16 00:47:37;;;;;;;4.25;1.75;;;8.00;47.50;;;;;;4935866;29;20238;-74
2022/02/16 00:50:04;;;;;;;1.67;0.93;;;7.90;48.30;;;;;;4935892;29;20364;-75
2022/02/16 00:52:32;;;;;;;4.88;1.20;;;7.90;47.80;;;;;;4935932;29;20651;-75
2022/02/16 00:54:59;;;;;;;1.30;1.20;;;7.90;48.00;;;;;;4937572;29;20715;-74
2022/02/16 00:57:26;;;;;;;0.85;0.73;;;7.90;47.80;;;;;;4937991;29;20266;-75
2022/02/16 00:59:53;;;;;;;2.25;0.95;;;8.00;47.80;;;;;;4938006;29;20668;-75
2022/02/16 01:02:20;;;;;;;2.25;0.95;;;7.90;47.60;;;;;;4937526;29;20708;-76
2022/02/16 01:04:47;;;;;;;1.08;0.75;;;7.90;47.60;;;;;;4937154;29;20746;-75
2022/02/16 01:07:14;;;;;;;0.95;0.70;;;7.90;48.10;;;;;;4937539;29;20235;-76
2022/02/16 01:09:42;;;;;;;1.73;0.98;;;7.90;48.00;;;;;;4936370;29;20212;-73
2022/02/16 01:12:09;;;;;;;2.10;0.90;;;7.90;48.20;;;;;;4935913;29;20218;-75
2022/02/16 01:14:36;;;;;;;0.93;0.88;;;8.00;48.30;;;;;;4937568;29;20238;-75
2022/02/16 01:17:03;;;;;;;2.13;1.10;;;8.00;48.80;;;;;;4937097;29;20235;-75
2022/02/16 01:19:31;;;;;;;0.90;0.68;;;7.90;48.40;;;;;;4937044;29;20235;-76
2022/02/16 01:21:57;;;;;;;3.33;0.70;;;8.00;48.50;;;;;;4945630;29;20235;-74
2022/02/16 01:24:24;;;;;;;1.35;0.80;;;7.90;48.40;;;;;;4941888;29;20323;-76
2022/02/16 01:26:53;;;;;;;3.05;0.98;;;7.90;48.40;;;;;;4936333;29;20238;-75
2022/02/16 01:29:19;;;;;;;0.95;0.60;;;7.90;48.40;;;;;;4937860;29;20295;-75
2022/02/16 01:31:46;;;;;;;3.33;1.05;;;7.90;48.40;;;;;;4939930;29;20295;-75
2022/02/16 01:34:13;;;;;;;1.63;0.68;;;7.90;48.40;;;;;;4937309;29;20586;-76
2022/02/16 01:36:40;;;;;;;2.15;0.85;;;7.90;48.60;;;;;;4939247;29;20217;-75
2022/02/16 01:39:07;;;;;;;1.08;0.80;;;7.90;49.40;;;;;;4939139;29;20215;-75
2022/02/16 01:41:34;;;;;;;2.05;1.02;;;7.80;49.80;;;;;;4938726;29;20703;-76
2022/02/16 01:44:04;;;;;;;1.73;0.70;;;7.80;50.50;;;;;;4939443;29;20355;-74
2022/02/16 01:46:31;;;;;;;4.28;1.20;;;7.80;51.20;;;;;;4942582;29;20221;-75
2022/02/16 01:48:58;;;;;;;2.00;0.80;;;7.80;51.90;;;;;;4946243;29;20243;-74
2022/02/16 01:51:25;;;;;;;1.17;1.08;;;7.70;52.20;;;;;;4953665;29;20230;-77
2022/02/16 01:53:52;;;;;;;3.38;0.75;;;7.70;53.00;;;;;;4955019;29;20236;-75
2022/02/16 01:56:21;;;;;;;3.45;1.05;;;7.60;53.50;;;;;;4953398;29;20212;-76
2022/02/16 01:58:48;;;;;;;4.28;1.20;;;7.70;54.50;;;;;;4957379;29;20375;-74
2022/02/16 02:01:16;;;;;;;1.55;0.50;;;7.60;54.90;;;;;;4949758;29;20291;-74
2022/02/16 02:03:43;;;;;;;1.52;0.90;;;7.50;55.50;;;;;;4944181;29;20240;-75
2022/02/16 02:06:10;;;;;;;3.80;0.90;;;7.50;56.80;;;;;;4941109;29;20211;-76
2022/02/16 02:08:37;;;;;;;2.55;0.90;;;7.40;57.40;;;;;;4940638;29;20224;-75
2022/02/16 02:11:03;;;;;;;3.72;1.33;;;7.40;57.40;;;;;;4938997;29;20233;-76
2022/02/16 02:13:30;;;;;;;4.25;1.00;;;7.30;57.90;;;;;;4939689;29;20239;-76
2022/02/16 02:15:57;;;;;;;1.50;1.00;;;7.30;58.80;;;;;;4939511;29;20207;-75
2022/02/16 02:18:26;;;;;;;2.35;0.88;;;7.20;59.80;;;;;;4940577;29;20316;-75
2022/02/16 02:20:54;;;;;;;0.90;0.63;;;7.20;60.40;;;;;;4939008;29;20268;-76
2022/02/16 02:23:21;;;;;;;2.00;0.95;;;7.20;60.90;;;;;;4946399;29;20266;-76
2022/02/16 02:25:50;;;;;;;1.73;0.65;;;7.20;61.70;;;;;;4948752;29;20211;-75
2022/02/16 02:28:18;;;;;;;0.85;0.75;;;7.10;62.20;;;;;;4954180;29;20205;-75
2022/02/16 02:30:46;;;;;;;1.33;0.80;;;7.10;62.90;;;;;;4957061;29;20216;-75
2022/02/16 02:33:31;;;;;;;1.70;1.00;;;7.10;63.20;;;;;;4956985;29;20231;-75
2022/02/16 02:36:01;;;;;;;1.60;0.90;;;7.10;64.30;;;;;;4953147;29;20270;-75
2022/02/16 02:38:27;;;;;;;1.50;0.93;;;7.10;64.50;;;;;;4952748;29;20306;-75
2022/02/16 02:40:55;;;;;;;1.85;1.05;;;7.00;65.20;;;;;;4946973;29;20645;-75
2022/02/16 02:43:22;;;;;;;3.45;0.70;;;7.00;66.00;;;;;;4945860;29;20246;-75
2022/02/16 02:45:49;;;;;;;5.30;1.13;;;7.00;66.00;;;;;;4943885;29;20211;-76
2022/02/16 02:48:16;;;;;;;1.35;0.88;;;7.00;66.00;;;;;;4948390;29;20263;-75
2022/02/16 02:50:43;;;;;;;1.17;0.85;;;7.00;66.00;;;;;;4945870;29;20237;-75
2022/02/16 02:53:11;;;;;;;1.55;0.70;;;7.00;66.00;;;;;;4956233;29;20382;-75
2022/02/16 02:55:38;;;;;;;2.05;0.73;;;7.00;66.60;;;;;;4944141;29;20230;-75
2022/02/16 02:58:05;;;;;;;1.08;0.65;;;7.00;66.90;;;;;;4946870;29;20279;-75
2022/02/16 03:00:32;;;;;;;3.10;1.23;;;7.00;66.90;;;;;;4943127;29;20270;-75
2022/02/16 03:02:59;;;;;;;2.55;0.82;;;7.00;66.90;;;;;;4942533;29;20233;-75
2022/02/16 03:05:26;;;;;;;3.45;1.02;;;7.00;67.00;;;;;;4949903;29;20211;-75
2022/02/16 03:07:53;;;;;;;1.40;1.00;;;7.10;67.10;;;;;;4945995;29;20211;-76
2022/02/16 03:10:21;;;;;;;2.20;1.00;;;7.10;66.70;;;;;;4941076;29;20761;-76
2022/02/16 03:12:48;;;;;;;3.25;1.13;;;7.10;66.10;;;;;;4940299;29;20211;-75
2022/02/16 03:15:16;;;;;;;1.20;0.75;;;7.10;66.10;;;;;;4940720;29;20310;-76
2022/02/16 03:17:42;;;;;;;4.15;1.25;;;7.10;66.10;;;;;;4940336;29;20262;-75
2022/02/16 03:20:11;;;;;;;6.10;1.20;;;7.10;66.10;;;;;;4939821;29;20215;-76
2022/02/16 03:22:38;;;;;;;2.55;1.00;;;7.10;66.10;;;;;;4940301;29;20258;-76
2022/02/16 03:25:06;;;;;;;0.85;0.85;;;7.10;66.10;;;;;;4941448;29;20242;-75
2022/02/16 03:27:34;;;;;;;1.50;0.77;;;7.10;66.10;;;;;;4940446;29;20212;-76
2022/02/16 03:30:02;;;;;;;0.70;0.70;;;7.20;66.20;;;;;;4939249;29;20239;-75
2022/02/16 03:32:29;;;;;;;1.02;0.75;;;7.20;66.20;;;;;;4943987;29;20276;-75
2022/02/16 03:34:56;;;;;;;0.82;0.80;;;7.20;66.20;;;;;;4947297;29;20245;-75
2022/02/16 03:37:23;;;;;;;3.33;0.85;;;7.20;65.40;;;;;;4942470;29;20227;-76
2022/02/16 03:39:49;;;;;;;0.70;0.60;;;7.20;65.30;;;;;;4938743;29;20300;-75
2022/02/16 03:42:16;;;;;;;0.82;0.80;;;7.20;65.60;;;;;;4941171;29;20278;-75
2022/02/16 03:44:45;;;;;;;1.60;0.80;;;7.20;66.10;;;;;;4944211;29;20406;-75
2022/02/16 03:47:11;;;;;;;2.92;0.88;;;7.20;66.20;;;;;;4942595;29;20235;-76
2022/02/16 03:49:38;;;;;;;1.05;0.70;;;7.20;66.20;;;;;;4943764;29;20219;-76
2022/02/16 03:52:06;;;;;;;1.20;0.68;;;7.10;66.10;;;;;;4941601;29;20233;-75
2022/02/16 03:54:32;;;;;;;2.28;1.10;;;7.20;66.20;;;;;;4939866;29;20234;-75
2022/02/16 03:56:59;;;;;;;1.75;0.85;;;7.20;65.60;;;;;;4938917;29;20214;-75
2022/02/16 03:59:26;;;;;;;1.45;0.80;;;7.20;66.90;;;;;;4949675;29;20231;-75
2022/02/16 04:01:55;;;;;;;2.17;0.93;;;7.20;66.20;;;;;;4942428;29;20232;-75
2022/02/16 04:04:22;;;;;;;1.73;1.05;;;7.20;66.90;;;;;;4940693;29;20232;-75
2022/02/16 04:06:49;;;;;;;0.82;0.70;;;7.20;66.20;;;;;;4940031;29;20214;-75
2022/02/16 04:09:16;;;;;;;0.50;0.50;;;7.20;66.20;;;;;;4941437;29;20226;-75
2022/02/16 04:11:43;;;;;;;2.53;0.70;;;7.10;66.10;;;;;;4940652;29;20286;-77
2022/02/16 04:14:10;;;;;;;1.55;0.63;;;7.10;66.10;;;;;;4945510;29;20259;-75
2022/02/16 04:16:37;;;;;;;1.83;0.93;;;7.10;66.10;;;;;;4953390;29;20259;-76
2022/02/16 04:19:05;;;;;;;2.67;0.70;;;7.10;66.40;;;;;;4951453;29;20241;-74
2022/02/16 04:21:32;;;;;;;1.75;1.00;;;7.10;66.80;;;;;;4957249;28;20212;-75
2022/02/16 04:23:59;;;;;;;0.65;0.50;;;7.10;66.90;;;;;;4939584;29;20254;-76
2022/02/16 04:26:26;;;;;;;1.98;0.75;;;7.10;67.30;;;;;;4942405;29;20247;-75
2022/02/16 04:28:53;;;;;;;1.50;0.57;;;7.10;67.50;;;;;;4945864;29;20235;-75
2022/02/16 04:31:20;;;;;;;1.10;0.70;;;7.10;67.20;;;;;;4947229;29;20276;-75
2022/02/16 04:33:46;;;;;;;1.88;0.68;;;7.10;67.60;;;;;;4955284;29;20236;-75
2022/02/16 04:36:25;;;;;;;0.95;0.68;;;7.10;67.70;;;;;;4948998;28;20237;-75
2022/02/16 04:38:52;;;;;;;1.13;0.73;;;7.10;67.60;;;;;;4937096;29;20207;-75
2022/02/16 04:41:19;;;;;;;1.23;0.77;;;7.10;68.00;;;;;;4945531;29;20219;-75
2022/02/16 04:43:46;;;;;;;0.50;0.50;;;7.00;68.30;;;;;;4958679;28;20256;-76
2022/02/16 04:46:13;;;;;;;2.85;0.77;;;7.00;68.30;;;;;;4957129;28;20195;-77
2022/02/16 04:48:40;;;;;;;2.08;0.70;;;7.00;68.70;;;;;;4951403;29;20707;-76
2022/02/16 04:51:07;;;;;;;1.40;0.60;;;7.00;68.70;;;;;;4939936;29;20219;-75
2022/02/16 04:53:35;;;;;;;0.65;0.65;;;7.00;68.10;;;;;;4940436;29;20258;-75
2022/02/16 04:56:03;;;;;;;2.22;0.70;;;7.10;68.10;;;;;;4936748;29;20299;-74
2022/02/16 04:58:30;;;;;;;0.75;0.75;;;7.10;67.80;;;;;;4919971;29;20212;-76
2022/02/16 05:00:57;;;;;;;0.82;0.68;;;7.20;67.40;;;;;;4928393;29;20663;-75
2022/02/16 05:03:24;;;;;;;1.23;0.70;;;7.20;66.80;;;;;;4937248;29;20245;-76
2022/02/16 05:05:51;;;;;;;2.00;0.60;;;7.30;66.20;;;;;;4929498;29;20233;-75
2022/02/16 05:08:18;;;;;;;1.02;0.60;;;7.30;66.20;;;;;;4922833;29;20292;-76
2022/02/16 05:10:46;;;;;;;0.60;0.60;;;7.30;66.30;;;;;;4930762;29;20207;-75
2022/02/16 05:13:13;;;;;;;0.82;0.73;;;7.30;66.20;;;;;;4944605;29;20259;-76
2022/02/16 05:15:40;;;;;;;2.58;0.70;;;7.30;66.30;;;;;;4938884;29;20218;-76
2022/02/16 05:18:06;;;;;;;0.93;0.73;;;7.40;66.30;;;;;;4936206;29;20216;-75
2022/02/16 05:20:33;;;;;;;1.20;0.50;;;7.30;66.20;;;;;;4940581;29;20203;-75
2022/02/16 05:23:03;;;;;;;1.15;0.70;;;7.30;66.20;;;;;;4925299;29;20220;-75
2022/02/16 05:25:30;;;;;;;2.35;0.88;;;7.40;66.30;;;;;;4926993;29;20204;-75
2022/02/16 05:27:58;;;;;;;6.82;0.80;;;7.40;66.30;;;;;;4925188;29;20269;-74
2022/02/16 05:30:25;;;;;;;1.63;0.70;;;7.40;66.30;;;;;;4930818;29;20218;-74
2022/02/16 05:32:52;;;;;;;2.30;0.60;;;7.50;66.40;;;;;;4944622;29;20421;-75
2022/02/16 05:35:19;;;;;;;0.82;0.65;;;7.40;66.30;;;;;;4945080;29;20624;-74
2022/02/16 05:37:46;;;;;;;1.45;0.68;;;7.40;66.10;;;;;;4945717;29;20212;-74
2022/02/16 05:40:13;;;;;;;2.15;0.40;;;7.50;65.80;;;;;;4946506;29;20211;-75
2022/02/16 05:42:40;;;;;;;1.10;0.60;;;7.50;65.10;;;;;;4948500;29;20234;-75
2022/02/16 05:45:09;;;;;;;0.80;0.45;;;7.50;65.10;;;;;;4957952;29;20242;-75
2022/02/16 05:47:36;;;;;;;1.45;0.50;;;7.60;65.00;;;;;;4960815;29;20268;-76
2022/02/16 05:50:03;;;;;;;0.85;0.73;;;7.60;64.80;;;;;;4961548;29;20271;-75
2022/02/16 05:52:30;;;;;;;1.00;0.80;;;7.60;64.30;;;;;;4961836;29;20195;-76
2022/02/16 05:54:57;;;;;;;1.52;0.57;;;7.70;64.00;;;;;;4959501;29;20311;-76
2022/02/16 05:57:24;;;;;;;2.85;0.60;;;7.70;63.60;;;;;;4960971;29;20220;-75
2022/02/16 05:59:51;;;;;;;4.32;0.60;;;7.80;63.90;;;;;;4960125;29;20243;-76
2022/02/16 06:02:19;;;;;;;1.02;0.60;;;7.90;63.20;;;;;;4960896;29;20251;-75
2022/02/16 06:04:46;;;;;;;0.40;0.40;;;7.80;63.10;;;;;;4960695;29;20295;-74
2022/02/16 06:07:12;;;;;;;1.85;0.57;;;7.90;63.30;;;;;;4961433;29;20272;-75
2022/02/16 06:09:39;;;;;;;0.70;0.60;;;7.90;62.90;;;;;;4956144;29;20235;-75
2022/02/16 06:12:07;;;;;;;0.82;0.40;;;8.00;63.10;;;;;;4956063;29;20227;-75
2022/02/16 06:14:34;;;;;;;1.30;0.40;;;7.90;63.30;;;;;;4950148;29;20731;-75
2022/02/16 06:17:01;;;;;;;1.40;0.75;;;7.90;63.30;;;;;;4946532;29;20247;-76
2022/02/16 06:19:29;;;;;;;1.45;0.88;;;7.90;63.50;;;;;;4945232;29;20248;-74
2022/02/16 06:21:56;;;;;;;1.85;0.63;;;7.90;63.60;;;;;;4946702;29;20250;-75
2022/02/16 06:24:23;;;;;;;1.00;0.57;;;7.90;64.10;;;;;;4945160;29;20287;-76
2022/02/16 06:26:50;;;;;;;1.52;0.65;;;7.90;64.30;;;;;;4949398;29;20213;-75
2022/02/16 06:29:17;;;;;;;3.78;0.50;;;7.90;64.30;;;;;;4952114;29;20224;-76
2022/02/16 06:31:43;;;;;;;0.40;0.40;;;8.00;64.80;;;;;;4950934;29;20214;-74
2022/02/16 06:34:10;;;;;;;0.75;0.55;;;8.00;64.40;;;;;;4950952;29;20324;-76
2022/02/16 06:36:38;;;;;;;1.33;0.40;;;8.00;64.40;;;;;;4949656;29;20216;-75
2022/02/16 06:39:05;;;;;;;0.50;0.50;;;8.00;64.60;;;;;;4950189;29;20239;-76
2022/02/16 06:41:32;;;;;;;0.40;0.40;;;8.00;64.90;;;;;;4951615;29;20212;-75
2022/02/16 06:43:59;;;;;;;0.80;0.60;;;8.00;64.60;;;;;;4946452;29;20299;-76
2022/02/16 06:46:26;;;;;;;0.90;0.65;;;8.00;65.00;;;;;;4941880;29;20235;-75
2022/02/16 06:48:53;;;;;;;0.50;0.40;;;8.00;65.30;;;;;;4942489;29;20212;-75
2022/02/16 06:51:20;;;;;;;1.58;0.50;;;8.00;65.60;;;;;;4946898;29;20281;-75
2022/02/16 06:53:55;;;;;;;0.80;0.63;;;8.00;66.00;;;;;;4949632;29;20263;-76
2022/02/16 06:56:23;;;;;;;0.93;0.65;;;8.00;66.70;;;;;;4949387;29;20221;-75
2022/02/16 06:58:50;;;;;;;0.63;0.57;;;8.00;66.80;;;;;;4947083;29;20215;-76
2022/02/16 07:01:17;;;;;;;1.15;0.80;;;7.90;66.80;;;;;;4944739;29;20212;-75
2022/02/16 07:03:44;;;;;;;0.82;0.55;;;8.00;66.90;;;;;;4945463;29;20604;-75
2022/02/16 07:06:11;;;;;;;0.65;0.50;;;8.00;66.90;;;;;;4949871;29;20219;-74
2022/02/16 07:08:38;;;;;;;0.40;0.40;;;8.00;66.80;;;;;;4955308;29;20219;-75
2022/02/16 07:11:06;;;;;;;0.43;0.43;;;8.00;67.20;;;;;;4943050;29;20283;-75
2022/02/16 07:13:33;;;;;;;0.50;0.50;;;8.00;67.50;;;;;;4943479;29;20228;-76
2022/02/16 07:16:00;;;;;;;1.77;0.60;;;8.00;67.90;;;;;;4943742;29;20235;-75
2022/02/16 07:18:29;;;;;;;0.80;0.60;;;8.10;68.10;;;;;;4947758;29;20219;-75
2022/02/16 07:20:56;;;;;;;0.60;0.60;;;8.00;67.70;;;;;;4944054;29;20239;-76
2022/02/16 07:23:23;;;;;;;0.63;0.60;;;8.10;66.90;;;;;;4944481;29;20231;-75
2022/02/16 07:25:50;;;;;;;0.50;0.50;;;8.10;66.90;;;;;;4941297;29;20700;-75
2022/02/16 07:28:19;;;;;;;1.35;0.65;;;8.20;67.00;;;;;;4940068;29;20217;-75
2022/02/16 07:30:48;;;;;;;0.30;0.30;;;8.20;67.00;;;;;;4941150;29;20248;-76
2022/02/16 07:33:16;;;;;;;0.75;0.40;;;8.30;66.10;;;;;;4948129;29;20233;-75
2022/02/16 07:35:43;;;;;;;0.63;0.60;;;8.30;65.80;;;;;;4942109;29;20216;-76
2022/02/16 07:38:10;;;;;;;0.50;0.50;;;8.30;65.90;;;;;;4943294;29;20274;-75
2022/02/16 07:40:37;;;;;;;0.82;0.50;;;8.30;65.90;;;;;;4943058;29;20210;-73
2022/02/16 07:43:04;;;;;;;1.73;0.45;;;8.30;65.90;;;;;;4940187;29;20275;-75
2022/02/16 07:45:33;;;;;;;1.20;0.50;;;8.40;65.80;;;;;;4939228;29;20210;-76
2022/02/16 07:48:00;;;;;;;0.60;0.60;;;8.30;67.10;;;;;;4940229;29;20213;-75
2022/02/16 07:50:27;;;;;;;0.82;0.63;;;8.30;67.10;;;;;;4941345;29;20211;-76
2022/02/16 07:52:55;;;;;;;1.55;0.60;;;8.30;68.60;;;;;;4940905;29;20348;-76
2022/02/16 07:55:24;;;;;;;1.40;0.40;;;8.30;69.10;;;;;;4942462;29;20216;-76
2022/02/16 07:57:51;;;;;;;0.70;0.50;;;8.20;69.90;;;;;;4945957;29;20266;-76
2022/02/16 08:00:17;;;;;;;1.40;0.70;;;8.20;70.70;;;;;;4951716;29;20228;-74
2022/02/16 08:02:46;;;;;;;0.60;0.50;;;8.20;70.50;;;;;;4943775;29;20321;-75
2022/02/16 08:05:13;;;;;;;0.85;0.40;;;8.20;71.40;;;;;;4938559;29;20664;-74
2022/02/16 08:07:40;;;;;;;0.60;0.40;;;8.20;72.30;;;;;;4941263;29;20215;-76
2022/02/16 08:10:08;;;;;;;1.60;0.57;;;8.20;72.90;;;;;;4940494;29;20251;-77
2022/02/16 08:12:44;;;;;;;0.40;0.40;;;8.10;74.30;;;;;;4939524;29;20645;-76
2022/02/16 08:15:11;;;;;;;0.70;0.50;;;8.10;73.80;;;;;;4939226;29;20262;-76
2022/02/16 08:17:38;;;;;;;0.50;0.50;;;8.20;73.70;;;;;;4938687;29;20210;-76
2022/02/16 08:20:08;;;;;;;1.38;0.52;;;8.20;73.50;;;;;;4943501;29;20296;-76
2022/02/16 08:22:35;;;;;;;0.55;0.55;;;8.20;73.30;;;;;;4946040;29;20242;-75
2022/02/16 08:25:02;;;;;;;1.58;0.60;;;8.20;73.10;;;;;;4940605;29;20290;-77
2022/02/16 08:27:29;;;;;;;0.60;0.60;;;8.30;72.10;;;;;;4938814;29;20272;-75
2022/02/16 08:29:56;;;;;;;0.40;0.40;;;8.40;71.80;;;;;;4938870;29;20320;-75
2022/02/16 08:32:23;;;;;;;0.47;0.40;;;8.60;71.00;;;;;;4939003;29;20212;-76
2022/02/16 08:34:50;;;;;;;0.52;0.52;;;8.70;70.40;;;;;;4938799;29;20295;-74
2022/02/16 08:37:18;;;;;;;0.70;0.60;;;8.70;69.60;;;;;;4938694;29;20246;-76
2022/02/16 08:39:45;;;;;;;1.33;0.52;;;8.90;69.00;;;;;;4937881;29;20302;-76
2022/02/16 08:42:12;;;;;;;1.20;0.50;;;8.80;69.00;;;;;;4937472;29;20562;-75
2022/02/16 08:44:39;;;;;;;1.75;0.40;;;8.90;69.60;;;;;;4938534;29;20241;-75
2022/02/16 08:47:07;;;;;;;0.60;0.60;;;8.90;69.30;;;;;;4941189;29;20305;-75
2022/02/16 08:49:34;;;;;;;1.15;0.50;;;8.90;68.70;;;;;;4940470;29;20218;-76
2022/02/16 08:52:01;;;;;;;1.50;0.57;;;8.90;68.30;;;;;;4940073;29;20210;-75
2022/02/16 08:54:29;;;;;;;1.38;0.55;;;8.90;68.10;;;;;;4942959;29;20251;-76
2022/02/16 08:56:59;;;;;;;0.73;0.50;;;9.00;68.20;;;;;;4946504;29;20240;-74
2022/02/16 08:59:26;;;;;;;0.73;0.65;;;9.00;67.70;;;;;;4950508;29;20215;-75
2022/02/16 09:01:52;;;;;;;0.50;0.50;;;9.00;67.70;;;;;;4954061;29;20237;-76
2022/02/16 09:04:20;;;;;;;1.70;1.20;;;9.10;67.80;;;;;;4945598;29;20246;-76
2022/02/16 09:09:28;;;;;;;0.50;0.50;;;9.30;66.00;;;;;;4950506;29;20248;-76
2022/02/16 09:11:55;;;;;;;0.75;0.50;;;9.40;65.90;;;;;;4948033;29;20226;-76
2022/02/16 09:14:22;;;;;;;1.90;0.40;;;9.40;65.40;;;;;;4949178;29;20225;-75
2022/02/16 09:16:49;;;;;;;0.60;0.50;;;9.40;65.00;;;;;;4946449;29;20240;-77
2022/02/16 09:19:17;;;;;;;1.05;0.63;;;9.40;64.90;;;;;;4946115;29;20251;-74
2022/02/16 09:21:44;;;;;;;0.30;0.30;;;9.40;64.90;;;;;;4950761;29;20248;-76
2022/02/16 09:24:11;;;;;;;0.60;0.50;;;9.50;64.70;;;;;;4948514;28;20247;-76
2022/02/16 09:26:39;;;;;;;0.77;0.50;;;9.60;65.10;;;;;;4944452;29;20248;-76
2022/02/16 09:29:06;;;;;;;1.00;0.40;;;9.70;63.80;;;;;;4948683;29;20284;-77
2022/02/16 09:31:33;;;;;;;1.67;1.25;;;9.70;63.10;;;;;;4945407;29;20243;-75
2022/02/16 09:34:00;;;;;;;0.60;0.60;;;9.80;63.20;;;;;;4948330;29;20244;-75
2022/02/16 09:36:30;;;;;;;0.50;0.40;;;9.90;63.00;;;;;;4950416;29;20251;-76
2022/02/16 09:38:57;;;;;;;0.95;0.40;;;10.00;61.10;;;;;;4953347;28;20201;-76
2022/02/16 09:41:24;;;;;;;0.93;0.93;;;10.20;60.10;;;;;;4949561;29;20300;-76
2022/02/16 09:43:54;;;;;;;1.05;0.40;;;10.30;59.50;;;;;;4950416;29;20238;-75
2022/02/16 09:46:21;;;;;;;0.55;0.55;;;10.30;59.00;;;;;;4951082;29;20226;-77
2022/02/16 09:48:50;;;;;;;0.52;0.50;;;10.30;59.00;;;;;;4951193;29;20213;-75
2022/02/16 09:51:17;;;;;;;0.52;0.47;;;10.20;58.90;;;;;;4950458;29;20210;-76
2022/02/16 09:53:45;;;;;;;0.50;0.30;;;10.30;59.00;;;;;;4953550;29;20256;-77
2022/02/16 09:56:12;;;;;;;0.30;0.30;;;10.20;59.50;;;;;;4956376;29;20236;-76
2022/02/16 09:58:40;;;;;;;0.40;0.38;;;10.30;59.00;;;;;;4957358;29;20324;-76
2022/02/16 10:01:11;;;;;;;0.30;0.30;;;10.30;59.60;;;;;;4953586;29;20242;-76
2022/02/16 10:03:38;;;;;;;0.80;0.50;;;10.30;59.00;;;;;;4952779;29;20234;-75
2022/02/16 10:06:05;;;;;;;0.63;0.57;;;10.40;59.10;;;;;;4955694;29;20278;-75
2022/02/16 10:08:43;;;;;;;0.85;0.50;;;10.60;59.30;;;;;;4956151;29;20257;-74
2022/02/16 10:11:10;;;;;;;0.35;0.35;;;10.70;58.20;;;;;;4955334;29;20221;-74
2022/02/16 10:13:37;;;;;;;0.40;0.40;;;10.80;57.20;;;;;;4955883;29;20233;-77
2022/02/16 10:16:05;;;;;;;3.40;0.73;;;10.80;57.50;;;;;;4955519;29;20221;-74
2022/02/16 10:18:34;;;;;;;1.20;0.65;;;10.90;57.70;;;;;;4954320;29;20218;-75
2022/02/16 10:21:08;;;;;;;0.70;0.50;;;10.80;57.50;;;;;;4955133;29;20302;-75
2022/02/16 10:23:43;;;;;;;0.32;0.32;;;10.90;57.80;;;;;;4953130;29;20263;-76
2022/02/16 10:26:12;;;;;;;0.50;0.43;;;10.90;57.80;;;;;;4952295;29;20283;-76
2022/02/16 10:28:42;;;;;;;0.40;0.40;;;10.90;57.30;;;;;;4952092;29;20307;-76
2022/02/16 10:31:10;;;;;;;0.60;0.43;;;10.90;57.80;;;;;;4954281;29;20301;-75
2022/02/16 10:33:40;;;;;;;0.38;0.38;;;11.00;57.70;;;;;;4954193;29;20227;-76
2022/02/16 10:36:09;;;;;;;0.50;0.40;;;11.10;57.70;;;;;;4955786;29;20187;-75
2022/02/16 10:38:52;;;;;;;0.50;0.43;;;11.20;57.30;;;;;;4954738;29;20423;-76
2022/02/16 10:41:20;;;;;;;1.50;0.40;;;11.30;56.90;;;;;;4952700;29;20245;-74
2022/02/16 10:43:48;;;;;;;0.30;0.30;;;11.40;56.90;;;;;;4951201;29;20238;-77
2022/02/16 10:46:20;;;;;;;3.42;0.52;;;11.40;56.90;;;;;;4953089;29;20242;-75
2022/02/16 10:48:49;;;;;;;0.50;0.32;;;11.60;56.80;;;;;;4954909;29;20217;-75
2022/02/16 10:51:17;;;;;;;0.40;0.30;;;11.60;57.00;;;;;;4956292;29;20240;-75
2022/02/16 10:53:44;;;;;;;0.52;0.30;;;11.60;57.00;;;;;;4958350;29;20229;-75
2022/02/16 10:56:11;;;;;;;0.45;0.45;;;11.60;57.00;;;;;;4954275;29;20541;-75
2022/02/16 10:58:38;;;;;;;0.40;0.40;;;11.60;57.00;;;;;;4949317;29;20214;-76
2022/02/16 11:01:07;;;;;;;0.30;0.30;;;11.60;57.00;;;;;;4946779;29;20218;-77
2022/02/16 11:03:35;;;;;;;0.50;0.40;;;11.70;56.50;;;;;;4948219;29;20309;-75
2022/02/16 11:06:07;;;;;;;0.52;0.40;;;11.80;56.60;;;;;;4949013;29;20214;-74
2022/02/16 11:08:37;;;;;;;0.40;0.40;;;12.00;56.30;;;;;;4954394;29;20205;-75
2022/02/16 11:11:04;;;;;;;0.32;0.32;;;12.10;55.90;;;;;;4953086;29;20309;-77
2022/02/16 11:13:33;;;;;;;0.80;0.47;;;12.10;55.90;;;;;;4952182;29;20231;-74
2022/02/16 11:16:01;;;;;;;0.40;0.40;;;12.20;55.80;;;;;;4951161;29;20229;-75
2022/02/16 11:18:30;;;;;;;0.47;0.47;;;12.10;55.90;;;;;;4952132;29;20211;-75
2022/02/16 11:21:09;;;;;;;3.25;0.50;;;11.90;56.20;;;;;;4955218;29;20277;-76
2022/02/16 11:23:38;;;;;;;0.85;0.85;;;12.00;56.50;;;;;;4954340;29;20227;-76
2022/02/16 11:26:45;;;;;;;0.38;0.38;;;12.00;56.90;;;;;;4952348;29;20223;-76
2022/02/16 11:29:37;;;;;;;0.50;0.50;;;11.90;57.80;;;;;;4950502;29;20218;-75
2022/02/16 11:32:30;;;;;;;0.60;0.32;;;11.70;58.90;;;;;;4944136;29;20210;-75
2022/02/16 11:35:16;;;;;;;0.82;0.40;;;11.60;60.10;;;;;;4951266;29;20264;-75
2022/02/16 11:37:46;;;;;;;0.30;0.30;;;11.50;60.00;;;;;;4951093;29;20282;-75
2022/02/16 11:40:15;;;;;;;1.05;0.70;;;11.50;60.00;;;;;;4952237;29;20214;-75
2022/02/16 11:42:53;;;;;;;0.60;0.40;;;11.40;61.50;;;;;;4953204;29;20210;-75
2022/02/16 11:45:21;;;;;;;0.60;0.50;;;11.10;64.10;;;;;;4985660;23;20608;-78
2022/02/16 11:47:54;;;;;;;0.57;0.38;;;11.10;65.60;;;;;;4983095;28;20217;-78
2022/02/16 11:50:43;;;;;;;1.88;0.60;;;11.10;66.70;;;;;;4986895;28;20247;-77
2022/02/16 11:53:14;;;;;;;0.30;0.30;;;11.10;68.70;;;;;;4984689;28;20282;-76
2022/02/16 11:55:44;;;;;;;1.45;0.52;;;11.00;69.20;;;;;;4962509;29;20616;-77
2022/02/16 11:58:21;;;;;;;0.50;0.40;;;11.10;69.60;;;;;;4969366;29;20743;-77
2022/02/16 12:01:05;;;;;;;0.43;0.43;;;11.10;70.20;;;;;;4978948;28;20181;-75
2022/02/16 12:03:33;;;;;;;0.82;0.60;;;11.10;70.30;;;;;;4978069;28;20234;-79
2022/02/16 12:06:04;;;;;;;3.15;0.60;;;11.00;71.60;;;;;;4971202;28;20229;-78
2022/02/16 12:08:36;;;;;;;0.63;0.60;;;11.00;71.20;;;;;;4965630;29;20233;-78
2022/02/16 12:11:15;;;;;;;0.50;0.50;;;11.10;70.70;;;;;;4965236;29;20214;-78
2022/02/16 12:13:44;;;;;;;0.40;0.40;;;11.20;72.50;;;;;;4962953;29;20248;-78
2022/02/16 12:16:14;;;;;;;0.50;0.40;;;11.30;71.40;;;;;;4962136;29;20216;-78
2022/02/16 12:18:43;;;;;;;0.60;0.40;;;11.30;70.20;;;;;;4965311;28;20213;-80
2022/02/16 12:21:11;;;;;;;0.50;0.50;;;11.30;69.20;;;;;;4970352;29;20237;-77
2022/02/16 12:23:43;;;;;;;1.05;0.55;;;11.30;68.80;;;;;;4972438;29;20240;-79
2022/02/16 12:26:13;;;;;;;0.40;0.40;;;11.30;69.10;;;;;;4969664;28;20372;-78
2022/02/16 12:28:52;;;;;;;0.70;0.57;;;11.40;68.80;;;;;;4970518;29;20224;-78
2022/02/16 12:31:22;;;;;;;0.70;0.40;;;11.40;68.80;;;;;;4971501;29;20216;-79
2022/02/16 12:34:00;;;;;;;0.50;0.50;;;11.50;68.30;;;;;;4965522;29;20248;-79
2022/02/16 12:36:27;;;;;;;2.20;0.50;;;11.50;68.10;;;;;;4959161;29;20197;-78
2022/02/16 12:38:58;;;;;;;0.60;0.50;;;11.40;68.20;;;;;;4958282;29;20206;-76
2022/02/16 12:41:25;;;;;;;0.73;0.50;;;11.30;68.30;;;;;;4961517;29;20281;-79
2022/02/16 12:43:55;;;;;;;0.80;0.50;;;11.30;67.70;;;;;;4963597;29;20323;-78
2022/02/16 12:46:23;;;;;;;0.40;0.40;;;11.40;67.70;;;;;;4963532;29;20521;-75
2022/02/16 12:48:51;;;;;;;1.48;0.50;;;11.40;67.30;;;;;;4963176;28;20219;-77
2022/02/16 12:51:26;;;;;;;0.40;0.40;;;11.60;67.30;;;;;;4962243;29;20212;-77
2022/02/16 12:53:54;;;;;;;0.40;0.40;;;11.60;66.00;;;;;;4960868;29;20269;-78
2022/02/16 12:56:22;;;;;;;0.73;0.60;;;11.50;66.50;;;;;;4971037;28;20209;-78
2022/02/16 12:58:49;;;;;;;0.90;0.60;;;11.60;66.10;;;;;;4974526;29;20316;-77
2022/02/16 13:01:16;;;;;;;0.40;0.30;;;11.60;65.90;;;;;;4963261;29;20221;-77
2022/02/16 13:03:44;;;;;;;0.70;0.60;;;11.60;65.40;;;;;;4959489;29;20234;-78